createdAt,value
2017-11-16T18:30:07.909Z,19.8
2017-11-16T18:31:11.514Z,20
2017-11-16T18:32:14.227Z,20.3
2017-11-16T19:20:39.637Z,19.9
2017-11-16T19:21:46.212Z,20.2
2017-11-16T19:22:49.498Z,20.5
2017-11-16T19:23:51.813Z,20.8
2017-11-16T19:24:55.163Z,21.4
2017-11-16T19:25:57.626Z,21.6
2017-11-16T19:27:00.164Z,21.4
2017-11-16T19:28:05.230Z,21.4
2017-11-16T19:29:07.967Z,21.7
2017-11-16T19:30:10.409Z,22.2
2017-11-16T19:31:12.867Z,22.1
2017-11-16T19:32:20.633Z,21.4
2017-11-16T19:33:24.361Z,21.1
2017-11-16T19:34:39.783Z,21.1
2017-11-16T19:35:42.627Z,21.3
2017-11-16T19:36:45.523Z,21.8
2017-11-16T19:37:48.980Z,22.4
2017-11-16T19:38:51.535Z,22.1
2017-11-16T19:39:57.731Z,22.2
2017-11-16T19:41:00.281Z,21.7
2017-11-16T19:42:06.493Z,21.6
2017-11-16T19:43:10.652Z,21.6
2017-11-16T19:44:17.074Z,21.6
2017-11-16T19:45:20.455Z,21.6
2017-11-16T19:46:27.902Z,21.5
2017-11-16T19:47:30.585Z,21.5
2017-11-16T19:48:41.802Z,21.8
2017-11-16T19:49:48.649Z,21.8
2017-11-16T19:50:51.577Z,21.7
2017-11-16T19:51:56.617Z,21.9
2017-11-16T19:52:59.236Z,22.1
2017-11-16T19:54:03.870Z,21.9
2017-11-16T19:55:20.036Z,21.7
2017-11-16T19:56:25.288Z,21.4
2017-11-16T19:57:32.225Z,21.7
2017-11-16T19:58:36.812Z,21.9
2017-11-16T19:59:45.162Z,21.9
2017-11-16T20:00:48.234Z,22.2
2017-11-16T20:01:52.403Z,21.9
2017-11-16T20:02:55.636Z,22
2017-11-16T20:03:58.205Z,22.7
2017-11-16T20:05:02.519Z,22.3
